Terminal Aerodrome Forecast
Issued by NWS

Home | Current Version | Previous Version | Text Only | Print | Product List | Glossary On
Versions: 1 2 3 4 5 6 7 8 9 10 11 12 13 14 15 16 17 18 19 20
000
FTUS44 KBMX 061800 AAA
TAFANB
TAF AMD
KANB 061823Z 0618/0718 03005KT P6SM SCT050
     FM062100 33005KT P6SM SKC
     FM070300 00000KT P6SM SKC=

USA.gov is the U.S. government's official web portal to all federal, state and local government web resources and services.